createdAt,value
2022-12-04T00:02:18.240Z,2.46
2022-12-04T00:05:05.457Z,2.48
2022-12-04T00:07:52.073Z,2.52
2022-12-04T00:10:43.588Z,2.52
2022-12-04T00:13:29.989Z,2.54
2022-12-04T00:16:22.016Z,2.56
2022-12-04T00:19:08.527Z,2.55
2022-12-04T00:21:55.133Z,2.51
2022-12-04T00:24:41.429Z,2.51
2022-12-04T00:27:27.702Z,2.50
2022-12-04T00:30:14.389Z,2.50
2022-12-04T00:33:00.990Z,2.54
2022-12-04T00:35:47.841Z,2.54
2022-12-04T00:38:34.883Z,2.55
2022-12-04T00:41:23.727Z,2.55
2022-12-04T00:44:10.228Z,2.52
2022-12-04T00:46:57.039Z,2.50
2022-12-04T00:49:43.792Z,2.49
2022-12-04T00:52:30.385Z,2.46
2022-12-04T00:55:17.058Z,2.42
2022-12-04T00:58:03.177Z,2.42
2022-12-04T01:00:49.501Z,2.47
2022-12-04T01:03:36.441Z,2.51
2022-12-04T01:06:28.570Z,2.55
2022-12-04T01:09:14.908Z,2.56
2022-12-04T01:12:01.510Z,2.51
2022-12-04T01:14:48.050Z,2.51
2022-12-04T01:17:34.723Z,2.51
2022-12-04T01:20:21.130Z,2.50
2022-12-04T01:23:08.554Z,2.48
2022-12-04T01:25:57.735Z,2.46
2022-12-04T01:28:44.321Z,2.45
2022-12-04T01:31:31.683Z,2.46
2022-12-04T01:34:18.426Z,2.50
2022-12-04T01:37:04.860Z,2.53
2022-12-04T01:39:51.454Z,2.52
2022-12-04T01:42:37.888Z,2.49
2022-12-04T01:45:41.828Z,2.44
2022-12-04T01:48:44.453Z,2.35
2022-12-04T01:51:35.768Z,2.26
2022-12-04T01:54:29.152Z,2.17
2022-12-04T01:57:23.726Z,2.13
2022-12-04T02:00:12.445Z,2.15
2022-12-04T02:02:59.068Z,2.15
2022-12-04T02:05:45.791Z,2.16
2022-12-04T02:08:32.606Z,2.16
2022-12-04T02:11:40.815Z,2.16
2022-12-04T02:14:49.437Z,2.12
2022-12-04T02:17:57.448Z,2.10
2022-12-04T02:21:10.449Z,2.09
2022-12-04T02:24:46.641Z,2.08
2022-12-04T02:27:39.085Z,2.09
2022-12-04T02:30:26.234Z,2.09
2022-12-04T02:33:19.771Z,2.09
2022-12-04T02:36:19.570Z,2.10
2022-12-04T02:39:07.911Z,2.14
2022-12-04T02:42:25.463Z,2.21
2022-12-04T02:45:13.993Z,2.28
2022-12-04T02:48:01.235Z,2.34
2022-12-04T02:50:49.763Z,2.36
2022-12-04T02:53:39.708Z,2.37
2022-12-04T02:56:30.534Z,2.36
2022-12-04T02:59:23.320Z,2.36
2022-12-04T03:02:15.939Z,2.35
2022-12-04T03:05:05.553Z,2.33
2022-12-04T03:08:00.144Z,2.35
2022-12-04T03:10:49.595Z,2.39
2022-12-04T03:13:41.863Z,2.43
2022-12-04T03:16:31.657Z,2.44
2022-12-04T03:19:25.813Z,2.40
2022-12-04T03:22:14.795Z,2.32
2022-12-04T03:25:02.127Z,2.25
2022-12-04T03:27:58.231Z,2.18
2022-12-04T03:30:50.160Z,2.08
2022-12-04T03:33:42.101Z,1.99
2022-12-04T03:36:32.821Z,1.91
2022-12-04T03:39:32.197Z,1.82
2022-12-04T03:42:21.220Z,1.75
2022-12-04T03:45:13.509Z,1.69
2022-12-04T03:48:07.452Z,1.63
2022-12-04T03:50:58.230Z,1.56
2022-12-04T03:53:48.638Z,1.49
2022-12-04T03:56:41.603Z,1.42
2022-12-04T03:59:30.615Z,1.37
2022-12-04T04:02:18.157Z,1.35
2022-12-04T04:05:07.234Z,1.36
2022-12-04T04:08:21.507Z,1.40
2022-12-04T04:11:27.919Z,1.47
2022-12-04T04:14:37.757Z,1.49
2022-12-04T04:17:47.033Z,1.49
2022-12-04T04:20:54.187Z,1.47
2022-12-04T04:24:02.258Z,1.46
2022-12-04T04:26:48.896Z,1.39
2022-12-04T04:29:35.609Z,1.32
2022-12-04T04:32:34.602Z,1.28
2022-12-04T04:35:23.163Z,1.23
2022-12-04T04:38:15.909Z,1.14
2022-12-04T04:41:08.038Z,1.01
2022-12-04T04:43:59.454Z,0.89
2022-12-04T04:46:53.157Z,0.84
2022-12-04T04:49:40.045Z,0.81
2022-12-04T04:52:26.850Z,0.77
2022-12-04T04:55:14.482Z,0.69
2022-12-04T04:58:27.554Z,0.63
2022-12-04T05:01:18.867Z,0.56
2022-12-04T05:04:06.473Z,0.51
2022-12-04T05:06:53.017Z,0.53
2022-12-04T05:09:41.397Z,0.59
2022-12-04T05:12:28.250Z,0.72
2022-12-04T05:15:15.128Z,0.79
2022-12-04T05:18:01.487Z,0.87
2022-12-04T05:20:48.190Z,0.92
2022-12-04T05:23:34.943Z,0.93
2022-12-04T05:26:21.673Z,0.90
2022-12-04T05:29:08.423Z,0.86
2022-12-04T05:31:54.892Z,0.82
2022-12-04T05:34:41.908Z,0.79
2022-12-04T05:37:28.590Z,0.72
2022-12-04T05:40:15.228Z,0.54
2022-12-04T05:43:01.702Z,0.40
2022-12-04T05:45:48.505Z,0.37
2022-12-04T05:48:35.845Z,0.36
2022-12-04T05:51:22.128Z,0.31
2022-12-04T05:54:08.511Z,0.33
2022-12-04T05:56:55.338Z,0.38
2022-12-04T05:59:42.253Z,0.40
2022-12-04T06:02:29.201Z,0.38
2022-12-04T06:05:16.192Z,0.33
2022-12-04T06:08:03.284Z,0.31
2022-12-04T06:10:50.007Z,0.30
2022-12-04T06:13:36.819Z,0.28
2022-12-04T06:16:25.595Z,0.25
2022-12-04T06:19:14.799Z,0.18
2022-12-04T06:22:01.468Z,0.09
2022-12-04T06:24:48.137Z,0.02
2022-12-04T06:27:34.568Z,-0.06
2022-12-04T06:30:21.074Z,-0.10
2022-12-04T06:33:07.503Z,-0.14
2022-12-04T06:36:08.166Z,-0.16
2022-12-04T06:38:55.638Z,-0.14
2022-12-04T06:41:42.054Z,-0.08
2022-12-04T06:44:28.748Z,0.01
2022-12-04T06:47:15.227Z,0.13
2022-12-04T06:50:02.617Z,0.22
2022-12-04T06:52:49.434Z,0.32
2022-12-04T06:55:35.934Z,0.41
2022-12-04T06:58:22.394Z,0.52
2022-12-04T07:01:11.073Z,0.63
2022-12-04T07:03:57.836Z,0.69
2022-12-04T07:06:44.448Z,0.74
2022-12-04T07:09:31.083Z,0.81
2022-12-04T07:12:17.771Z,0.89
2022-12-04T07:15:04.984Z,0.92
2022-12-04T07:17:51.283Z,0.91
2022-12-04T07:20:39.606Z,0.85
2022-12-04T07:23:26.332Z,0.85
2022-12-04T07:26:13.530Z,0.92
2022-12-04T07:29:00.556Z,1.05
2022-12-04T07:31:47.329Z,1.15
2022-12-04T07:34:35.984Z,1.24
2022-12-04T07:37:22.841Z,1.37
2022-12-04T07:40:10.554Z,1.47
2022-12-04T07:42:57.388Z,1.59
2022-12-04T07:45:44.243Z,1.70
2022-12-04T07:48:33.439Z,1.80
2022-12-04T07:51:22.090Z,1.88
2022-12-04T07:54:09.544Z,1.99
2022-12-04T07:56:56.590Z,2.09
2022-12-04T07:59:43.082Z,2.16
2022-12-04T08:02:29.975Z,2.22
2022-12-04T08:05:16.851Z,2.36
2022-12-04T08:08:03.789Z,2.56
2022-12-04T08:10:50.408Z,2.81
2022-12-04T08:13:37.113Z,2.89
2022-12-04T08:16:24.054Z,2.92
2022-12-04T08:19:10.841Z,2.96
2022-12-04T08:21:57.268Z,2.92
2022-12-04T08:24:44.047Z,2.94
2022-12-04T08:27:30.769Z,2.91
2022-12-04T08:30:17.568Z,2.89
2022-12-04T08:33:04.583Z,2.87
2022-12-04T08:35:51.103Z,2.87
2022-12-04T08:38:38.203Z,2.89
2022-12-04T08:41:26.297Z,2.94
2022-12-04T08:44:12.739Z,2.97
2022-12-04T08:46:59.558Z,2.97
2022-12-04T08:49:45.848Z,3.00
2022-12-04T08:52:32.671Z,3.02
2022-12-04T08:55:19.356Z,3.06
2022-12-04T08:58:06.048Z,3.16
2022-12-04T09:00:52.688Z,3.24
2022-12-04T09:03:39.226Z,3.35
2022-12-04T09:06:26.311Z,3.46
2022-12-04T09:09:13.095Z,3.49
2022-12-04T09:12:00.161Z,3.57
2022-12-04T09:14:46.676Z,3.61
2022-12-04T09:17:34.845Z,3.64
2022-12-04T09:20:21.692Z,3.73
2022-12-04T09:23:08.270Z,3.77
2022-12-04T09:25:54.803Z,3.78
2022-12-04T09:28:40.995Z,3.87
2022-12-04T09:31:27.791Z,4.03
2022-12-04T09:34:14.886Z,4.07
2022-12-04T09:37:01.595Z,4.12
2022-12-04T09:39:48.476Z,4.13
2022-12-04T09:42:47.931Z,4.15
2022-12-04T09:45:42.856Z,4.19
2022-12-04T09:48:34.715Z,4.18
2022-12-04T09:51:21.696Z,4.20
2022-12-04T09:54:17.440Z,4.31
2022-12-04T09:57:12.087Z,4.62
2022-12-04T09:59:58.852Z,4.97
2022-12-04T10:02:49.939Z,5.33
2022-12-04T10:05:42.815Z,5.79
2022-12-04T10:08:32.122Z,6.17
2022-12-04T10:11:46.196Z,6.24
2022-12-04T10:14:51.965Z,6.28
2022-12-04T10:18:05.780Z,6.39
2022-12-04T10:21:11.397Z,6.59
2022-12-04T10:24:18.729Z,6.88
2022-12-04T10:27:12.151Z,7.23
2022-12-04T10:30:27.262Z,7.43
2022-12-04T10:33:18.106Z,7.19
2022-12-04T10:36:05.306Z,7.11
2022-12-04T10:39:09.213Z,7.14
2022-12-04T10:42:00.131Z,7.20
2022-12-04T10:44:46.502Z,7.13
2022-12-04T10:47:34.099Z,7.24
2022-12-04T10:50:22.748Z,7.35
2022-12-04T10:53:13.859Z,7.28
2022-12-04T10:56:21.751Z,7.29
2022-12-04T10:59:14.418Z,7.22
2022-12-04T11:02:13.409Z,7.37
2022-12-04T11:05:04.716Z,7.26
2022-12-04T11:07:51.844Z,7.21
2022-12-04T11:10:40.114Z,7.38
2022-12-04T11:13:26.992Z,7.63
2022-12-04T11:16:48.283Z,7.69
2022-12-04T11:19:36.346Z,7.83
2022-12-04T11:22:23.004Z,7.81
2022-12-04T11:25:15.428Z,7.89
2022-12-04T11:28:02.705Z,7.80
2022-12-04T11:30:50.901Z,7.97
2022-12-04T11:34:13.860Z,8.03
2022-12-04T11:37:00.494Z,8.24
2022-12-04T11:39:48.345Z,8.14
2022-12-04T11:42:34.972Z,7.86
2022-12-04T11:45:23.048Z,7.63
2022-12-04T11:48:14.906Z,7.36
2022-12-04T11:51:16.751Z,7.22
2022-12-04T11:54:25.392Z,7.10
2022-12-04T11:57:43.796Z,6.98
2022-12-04T12:00:30.431Z,6.91
2022-12-04T12:03:31.248Z,6.93
2022-12-04T12:06:30.660Z,7.02
2022-12-04T12:09:25.696Z,7.26
2022-12-04T12:12:17.604Z,7.50
2022-12-04T12:15:19.727Z,7.69
2022-12-04T12:18:22.504Z,7.69
2022-12-04T12:21:24.606Z,7.64
2022-12-04T12:24:32.071Z,7.81
2022-12-04T12:27:38.950Z,7.87
2022-12-04T12:30:25.434Z,7.90
2022-12-04T12:33:17.930Z,7.72
2022-12-04T12:36:12.337Z,7.47
2022-12-04T12:39:01.862Z,7.26
2022-12-04T12:41:54.145Z,7.16
2022-12-04T12:44:57.784Z,7.05
2022-12-04T12:47:46.387Z,6.91
2022-12-04T12:50:41.339Z,6.84
2022-12-04T12:53:31.724Z,6.80
2022-12-04T12:59:48.661Z,6.75
2022-12-04T13:02:45.545Z,6.72
2022-12-04T13:05:37.852Z,6.72
2022-12-04T13:08:49.489Z,6.74
2022-12-04T13:11:37.196Z,6.62
2022-12-04T13:14:23.932Z,6.59
2022-12-04T13:17:33.210Z,6.62
2022-12-04T13:20:28.766Z,6.63
2022-12-04T13:23:21.583Z,6.58
2022-12-04T13:26:34.022Z,6.54
2022-12-04T13:29:57.644Z,6.44
2022-12-04T13:32:59.736Z,6.36
2022-12-04T13:36:11.410Z,6.35
2022-12-04T13:39:03.960Z,6.36
2022-12-04T13:41:57.837Z,6.33
2022-12-04T13:44:51.856Z,6.33
2022-12-04T13:47:38.974Z,6.34
2022-12-04T13:50:35.566Z,6.30
2022-12-04T13:53:33.228Z,6.20
2022-12-04T13:56:25.676Z,6.10
2022-12-04T13:59:27.298Z,6.04
2022-12-04T14:02:35.440Z,5.98
2022-12-04T14:05:29.516Z,5.94
2022-12-04T14:08:22.671Z,5.87
2022-12-04T14:11:14.335Z,5.73
2022-12-04T14:14:05.066Z,5.62
2022-12-04T14:16:55.702Z,5.60
2022-12-04T14:19:42.106Z,5.56
2022-12-04T14:22:34.702Z,5.56
2022-12-04T14:25:33.698Z,5.54
2022-12-04T14:28:36.015Z,5.43
2022-12-04T14:31:33.448Z,5.35
2022-12-04T14:34:22.790Z,5.20
2022-12-04T14:37:17.759Z,5.09
2022-12-04T14:40:07.434Z,5.07
2022-12-04T14:42:54.377Z,5.03
2022-12-04T14:45:48.185Z,4.95
2022-12-04T14:48:54.905Z,4.93
2022-12-04T14:51:56.134Z,4.95
2022-12-04T14:55:06.749Z,4.92
2022-12-04T14:58:21.309Z,4.74
2022-12-04T15:01:30.523Z,4.62
2022-12-04T15:04:29.494Z,4.50
2022-12-04T15:10:46.826Z,4.31
2022-12-04T15:13:34.518Z,4.26
2022-12-04T15:16:21.969Z,4.24
2022-12-04T15:19:18.965Z,4.22
2022-12-04T15:22:11.674Z,4.22
2022-12-04T15:24:58.449Z,4.19
2022-12-04T15:27:46.245Z,4.14
2022-12-04T15:30:32.634Z,4.07
2022-12-04T15:33:27.939Z,4.01
2022-12-04T15:36:37.497Z,3.96
2022-12-04T15:39:26.128Z,3.89
2022-12-04T15:42:24.951Z,3.78
2022-12-04T15:45:12.766Z,3.70
2022-12-04T15:47:59.530Z,3.61
2022-12-04T15:50:46.292Z,3.58
2022-12-04T15:53:34.516Z,3.56
2022-12-04T15:56:21.957Z,3.55
2022-12-04T15:59:15.459Z,3.56
2022-12-04T16:02:22.734Z,3.54
2022-12-04T16:05:21.392Z,3.53
2022-12-04T16:08:20.379Z,3.49
2022-12-04T16:11:34.528Z,3.41
2022-12-04T16:14:21.111Z,3.34
2022-12-04T16:17:08.811Z,3.29
2022-12-04T16:19:55.468Z,3.23
2022-12-04T16:22:42.509Z,3.18
2022-12-04T16:25:32.372Z,3.15
2022-12-04T16:28:19.111Z,3.16
2022-12-04T16:31:06.206Z,3.20
2022-12-04T16:33:52.887Z,3.19
2022-12-04T16:46:39.234Z,3.07
2022-12-04T16:49:25.842Z,2.98
2022-12-04T16:52:12.274Z,2.92
2022-12-04T16:55:04.397Z,2.85
2022-12-04T16:57:51.706Z,2.77
2022-12-04T17:00:39.297Z,2.74
2022-12-04T17:03:27.978Z,2.74
2022-12-04T17:06:14.547Z,2.77
2022-12-04T17:09:00.897Z,2.80
2022-12-04T17:11:47.827Z,2.73
2022-12-04T17:14:35.739Z,2.64
2022-12-04T17:17:22.365Z,2.57
2022-12-04T17:20:18.879Z,2.52
2022-12-04T17:23:05.308Z,2.46
2022-12-04T17:25:52.091Z,2.44
2022-12-04T17:28:39.283Z,2.35
2022-12-04T17:31:26.637Z,2.25
2022-12-04T17:34:13.319Z,2.16
2022-12-04T17:36:59.961Z,2.11
2022-12-04T17:39:47.034Z,1.95
2022-12-04T17:42:33.667Z,1.79
2022-12-04T17:45:20.581Z,1.67
2022-12-04T17:48:07.409Z,1.61
2022-12-04T17:51:07.914Z,1.59
2022-12-04T17:53:54.735Z,1.52
2022-12-04T17:56:46.209Z,1.42
2022-12-04T17:59:35.126Z,1.37
2022-12-04T18:02:22.036Z,1.38
2022-12-04T18:05:09.551Z,1.41
2022-12-04T18:07:55.866Z,1.48
2022-12-04T18:10:42.939Z,1.60
2022-12-04T18:13:29.122Z,1.69
2022-12-04T18:16:15.693Z,1.81
2022-12-04T18:19:02.573Z,1.83
2022-12-04T18:21:49.225Z,1.89
2022-12-04T18:24:35.796Z,1.94
2022-12-04T18:27:22.154Z,1.99
2022-12-04T18:30:09.301Z,2.05
2022-12-04T18:32:55.616Z,2.12
2022-12-04T18:35:42.218Z,2.22
2022-12-04T18:38:30.648Z,2.32
2022-12-04T18:41:16.786Z,2.42
2022-12-04T18:44:03.714Z,2.49
2022-12-04T18:46:50.529Z,2.55
2022-12-04T18:49:36.995Z,2.59
2022-12-04T18:52:23.650Z,2.64
2022-12-04T18:55:10.417Z,2.66
2022-12-04T18:57:56.726Z,2.69
2022-12-04T19:00:43.038Z,2.73
2022-12-04T19:03:29.763Z,2.77
2022-12-04T19:06:16.245Z,2.79
2022-12-04T19:09:05.043Z,2.76
2022-12-04T19:11:51.238Z,2.79
2022-12-04T19:14:38.676Z,2.80
2022-12-04T19:17:25.037Z,2.80
2022-12-04T19:20:11.589Z,2.79
2022-12-04T19:22:58.092Z,2.85
2022-12-04T19:25:44.431Z,2.87
2022-12-04T19:28:31.323Z,2.92
2022-12-04T19:31:30.461Z,2.89
2022-12-04T19:34:18.329Z,2.84
2022-12-04T19:37:07.623Z,2.84
2022-12-04T19:39:54.844Z,2.83
2022-12-04T19:42:41.824Z,2.80
2022-12-04T19:45:28.523Z,2.78
2022-12-04T19:48:15.017Z,2.77
2022-12-04T19:51:20.449Z,2.74
2022-12-04T19:54:07.680Z,2.77
2022-12-04T19:56:54.029Z,2.76
2022-12-04T19:59:45.691Z,2.74
2022-12-04T20:02:32.718Z,2.69
2022-12-04T20:05:19.264Z,2.69
2022-12-04T20:12:03.106Z,2.76
2022-12-04T20:14:49.606Z,2.67
2022-12-04T20:17:36.520Z,2.68
2022-12-04T20:20:23.248Z,2.71
2022-12-04T20:23:09.864Z,2.72
2022-12-04T20:25:56.664Z,2.72
2022-12-04T20:28:43.176Z,2.71
2022-12-04T20:31:32.647Z,2.62
2022-12-04T20:34:19.145Z,2.59
2022-12-04T20:37:06.061Z,2.57
2022-12-04T20:39:54.352Z,2.54
2022-12-04T20:42:41.327Z,2.55
2022-12-04T20:45:28.130Z,2.52
2022-12-04T20:48:14.998Z,2.50
2022-12-04T20:51:01.606Z,2.50
2022-12-04T20:53:49.800Z,2.51
2022-12-04T20:56:37.213Z,2.53
2022-12-04T20:59:24.340Z,2.52
2022-12-04T21:02:11.899Z,2.53
2022-12-04T21:04:59.002Z,2.55
2022-12-04T21:07:45.257Z,2.55
2022-12-04T21:10:33.029Z,2.55
2022-12-04T21:13:38.029Z,2.58
2022-12-04T21:16:24.618Z,2.64
2022-12-04T21:19:12.803Z,2.70
2022-12-04T21:21:59.403Z,2.77
2022-12-04T21:24:45.914Z,2.83
2022-12-04T21:27:32.270Z,2.79
2022-12-04T21:30:18.688Z,2.78
2022-12-04T21:33:05.495Z,2.80
2022-12-04T21:35:51.756Z,2.84
2022-12-04T21:38:39.147Z,2.77
2022-12-04T21:41:44.109Z,2.78
2022-12-04T21:44:30.405Z,2.77
2022-12-04T21:47:16.670Z,2.77
2022-12-04T21:50:02.881Z,2.76
2022-12-04T21:52:49.416Z,2.75
2022-12-04T21:55:35.641Z,2.74
2022-12-04T21:58:22.888Z,2.75
2022-12-04T22:01:12.977Z,2.75
2022-12-04T22:03:59.535Z,2.78
2022-12-04T22:06:46.296Z,2.76
2022-12-04T22:09:34.991Z,2.82
2022-12-04T22:15:27.438Z,2.89
2022-12-04T22:18:14.022Z,2.88
2022-12-04T22:21:03.242Z,2.84
2022-12-04T22:23:49.915Z,2.81
2022-12-04T22:26:36.640Z,2.79
2022-12-04T22:32:29.533Z,2.82
2022-12-04T22:35:16.058Z,2.80
2022-12-04T22:38:02.288Z,2.75
2022-12-04T22:40:48.904Z,2.79
2022-12-04T22:43:40.662Z,2.76
2022-12-04T22:46:27.131Z,2.77
2022-12-04T22:49:13.898Z,2.81
2022-12-04T22:52:00.167Z,2.83
2022-12-04T22:54:46.699Z,2.87
2022-12-04T22:57:34.307Z,2.93
2022-12-04T23:00:20.483Z,2.95
2022-12-04T23:03:07.083Z,2.92
2022-12-04T23:05:53.253Z,2.91
2022-12-04T23:08:40.157Z,2.89
2022-12-04T23:11:27.024Z,2.89
2022-12-04T23:14:14.502Z,2.89
2022-12-04T23:17:01.098Z,2.91
2022-12-04T23:19:47.822Z,2.92
2022-12-04T23:22:34.483Z,2.95
2022-12-04T23:25:21.470Z,2.93
2022-12-04T23:28:07.870Z,2.93
2022-12-04T23:30:53.983Z,2.91
2022-12-04T23:33:40.596Z,2.88
2022-12-04T23:36:27.171Z,2.92
2022-12-04T23:39:13.389Z,2.95
2022-12-04T23:41:59.934Z,2.95
2022-12-04T23:44:46.343Z,2.92
2022-12-04T23:47:33.284Z,2.90
2022-12-04T23:50:19.518Z,2.91
2022-12-04T23:53:06.375Z,2.95
2022-12-04T23:56:07.585Z,2.97
2022-12-04T23:58:56.261Z,2.98
